sensor_id;sensor_type;location;lat;lon;timestamp;temperature;humidity
5210;DHT22;2624;48.048;11.706;2023-02-01T00:00:00;2.30;99.90
5210;DHT22;2624;48.048;11.706;2023-02-01T00:05:04;2.30;99.90
5210;DHT22;2624;48.048;11.706;2023-02-01T00:10:08;2.30;99.90
5210;DHT22;2624;48.048;11.706;2023-02-01T00:15:10;2.30;99.90
5210;DHT22;2624;48.048;11.706;2023-02-01T00:20:13;2.30;99.90
5210;DHT22;2624;48.048;11.706;2023-02-01T00:25:15;2.40;99.90
5210;DHT22;2624;48.048;11.706;2023-02-01T00:30:17;2.40;99.90
5210;DHT22;2624;48.048;11.706;2023-02-01T00:35:20;2.40;99.90
5210;DHT22;2624;48.048;11.706;2023-02-01T00:40:22;2.40;99.90
5210;DHT22;2624;48.048;11.706;2023-02-01T00:45:24;2.40;99.90
5210;DHT22;2624;48.048;11.706;2023-02-01T00:50:27;2.40;99.90
5210;DHT22;2624;48.048;11.706;2023-02-01T00:55:29;2.40;99.90
5210;DHT22;2624;48.048;11.706;2023-02-01T01:00:30;2.30;99.90
5210;DHT22;2624;48.048;11.706;2023-02-01T01:05:33;2.30;99.90
5210;DHT22;2624;48.048;11.706;2023-02-01T01:10:35;2.30;99.90
5210;DHT22;2624;48.048;11.706;2023-02-01T01:15:37;2.30;99.90
5210;DHT22;2624;48.048;11.706;2023-02-01T01:20:41;2.30;99.90
5210;DHT22;2624;48.048;11.706;2023-02-01T01:25:43;2.20;99.90
5210;DHT22;2624;48.048;11.706;2023-02-01T01:30:46;2.20;99.90
5210;DHT22;2624;48.048;11.706;2023-02-01T01:35:49;2.20;99.90
5210;DHT22;2624;48.048;11.706;2023-02-01T01:40:51;2.20;99.90
5210;DHT22;2624;48.048;11.706;2023-02-01T01:45:53;2.20;99.90
5210;DHT22;2624;48.048;11.706;2023-02-01T01:50:58;2.20;99.90
5210;DHT22;2624;48.048;11.706;2023-02-01T01:56:02;2.20;99.90
5210;DHT22;2624;48.048;11.706;2023-02-01T02:01:04;2.20;99.90
5210;DHT22;2624;48.048;11.706;2023-02-01T02:06:14;2.10;99.90
5210;DHT22;2624;48.048;11.706;2023-02-01T02:11:18;2.10;99.90
5210;DHT22;2624;48.048;11.706;2023-02-01T02:16:36;2.10;99.90
5210;DHT22;2624;48.048;11.706;2023-02-01T02:21:59;2.10;99.90
5210;DHT22;2624;48.048;11.706;2023-02-01T02:27:12;2.10;99.90
5210;DHT22;2624;48.048;11.706;2023-02-01T02:38:20;2.10;99.90
5210;DHT22;2624;48.048;11.706;2023-02-01T02:43:30;2.10;99.90
5210;DHT22;2624;48.048;11.706;2023-02-01T02:49:02;2.10;99.90
5210;DHT22;2624;48.048;11.706;2023-02-01T02:54:09;2.10;99.90
5210;DHT22;2624;48.048;11.706;2023-02-01T02:59:31;2.10;99.90
5210;DHT22;2624;48.048;11.706;2023-02-01T03:04:52;2.10;99.90
5210;DHT22;2624;48.048;11.706;2023-02-01T03:09:59;2.10;99.90
5210;DHT22;2624;48.048;11.706;2023-02-01T03:15:08;2.10;99.90
5210;DHT22;2624;48.048;11.706;2023-02-01T03:20:13;2.10;99.90
5210;DHT22;2624;48.048;11.706;2023-02-01T03:25:21;2.10;99.90
5210;DHT22;2624;48.048;11.706;2023-02-01T03:30:26;2.10;99.90
5210;DHT22;2624;48.048;11.706;2023-02-01T03:35:32;2.10;99.90
5210;DHT22;2624;48.048;11.706;2023-02-01T03:40:37;2.10;99.90
5210;DHT22;2624;48.048;11.706;2023-02-01T03:45:44;2.00;99.90
5210;DHT22;2624;48.048;11.706;2023-02-01T03:50:50;2.00;99.90
5210;DHT22;2624;48.048;11.706;2023-02-01T03:55:55;2.10;99.90
5210;DHT22;2624;48.048;11.706;2023-02-01T04:00:59;2.10;99.90
5210;DHT22;2624;48.048;11.706;2023-02-01T04:06:01;2.10;99.90
5210;DHT22;2624;48.048;11.706;2023-02-01T04:11:04;2.00;99.90
5210;DHT22;2624;48.048;11.706;2023-02-01T04:16:06;2.10;99.90
5210;DHT22;2624;48.048;11.706;2023-02-01T04:21:08;2.00;99.90
5210;DHT22;2624;48.048;11.706;2023-02-01T04:26:11;2.10;99.90
5210;DHT22;2624;48.048;11.706;2023-02-01T04:31:13;2.10;99.90
5210;DHT22;2624;48.048;11.706;2023-02-01T04:36:15;2.10;99.90
5210;DHT22;2624;48.048;11.706;2023-02-01T04:41:21;2.10;99.90
5210;DHT22;2624;48.048;11.706;2023-02-01T04:46:23;2.10;99.90
5210;DHT22;2624;48.048;11.706;2023-02-01T04:51:25;2.10;99.90
5210;DHT22;2624;48.048;11.706;2023-02-01T04:56:28;2.10;99.90
5210;DHT22;2624;48.048;11.706;2023-02-01T05:01:29;2.10;99.90
5210;DHT22;2624;48.048;11.706;2023-02-01T05:06:31;2.10;99.90
5210;DHT22;2624;48.048;11.706;2023-02-01T05:11:34;2.10;99.90
5210;DHT22;2624;48.048;11.706;2023-02-01T05:16:54;2.00;99.90
5210;DHT22;2624;48.048;11.706;2023-02-01T05:21:56;2.10;99.90
5210;DHT22;2624;48.048;11.706;2023-02-01T05:26:59;2.10;99.90
5210;DHT22;2624;48.048;11.706;2023-02-01T05:32:00;2.10;99.90
5210;DHT22;2624;48.048;11.706;2023-02-01T05:37:02;2.10;99.90
5210;DHT22;2624;48.048;11.706;2023-02-01T05:42:05;2.10;99.90
5210;DHT22;2624;48.048;11.706;2023-02-01T05:47:07;2.00;99.90
5210;DHT22;2624;48.048;11.706;2023-02-01T05:52:09;2.10;99.90
5210;DHT22;2624;48.048;11.706;2023-02-01T05:57:12;2.00;99.90
5210;DHT22;2624;48.048;11.706;2023-02-01T06:02:14;2.00;99.90
5210;DHT22;2624;48.048;11.706;2023-02-01T06:07:16;2.10;99.90
5210;DHT22;2624;48.048;11.706;2023-02-01T06:12:19;2.10;99.90
5210;DHT22;2624;48.048;11.706;2023-02-01T06:17:21;2.00;99.90
5210;DHT22;2624;48.048;11.706;2023-02-01T06:22:23;2.10;99.90
5210;DHT22;2624;48.048;11.706;2023-02-01T06:27:26;2.10;99.90
5210;DHT22;2624;48.048;11.706;2023-02-01T06:32:27;2.10;99.90
5210;DHT22;2624;48.048;11.706;2023-02-01T06:37:29;2.10;99.90
5210;DHT22;2624;48.048;11.706;2023-02-01T06:42:32;2.10;99.90
5210;DHT22;2624;48.048;11.706;2023-02-01T06:47:34;2.10;99.90
5210;DHT22;2624;48.048;11.706;2023-02-01T06:52:36;2.00;99.90
5210;DHT22;2624;48.048;11.706;2023-02-01T06:57:39;2.10;99.90
5210;DHT22;2624;48.048;11.706;2023-02-01T07:02:41;2.10;99.90
5210;DHT22;2624;48.048;11.706;2023-02-01T07:07:43;2.20;99.90
5210;DHT22;2624;48.048;11.706;2023-02-01T07:12:46;2.10;99.90
5210;DHT22;2624;48.048;11.706;2023-02-01T07:17:48;2.20;99.90
5210;DHT22;2624;48.048;11.706;2023-02-01T07:22:55;2.20;99.90
5210;DHT22;2624;48.048;11.706;2023-02-01T07:27:58;2.20;99.90
5210;DHT22;2624;48.048;11.706;2023-02-01T07:33:00;2.20;99.90
5210;DHT22;2624;48.048;11.706;2023-02-01T07:38:01;2.30;99.90
5210;DHT22;2624;48.048;11.706;2023-02-01T07:43:04;2.30;99.90
5210;DHT22;2624;48.048;11.706;2023-02-01T07:48:08;2.30;99.90
5210;DHT22;2624;48.048;11.706;2023-02-01T07:53:09;2.30;99.90
5210;DHT22;2624;48.048;11.706;2023-02-01T07:58:12;2.30;99.90
5210;DHT22;2624;48.048;11.706;2023-02-01T08:03:14;2.30;99.90
5210;DHT22;2624;48.048;11.706;2023-02-01T08:08:16;2.30;99.90
5210;DHT22;2624;48.048;11.706;2023-02-01T08:13:19;2.30;99.90
5210;DHT22;2624;48.048;11.706;2023-02-01T08:18:21;2.40;99.90
5210;DHT22;2624;48.048;11.706;2023-02-01T08:23:23;2.30;99.90
5210;DHT22;2624;48.048;11.706;2023-02-01T08:28:26;2.30;99.90
5210;DHT22;2624;48.048;11.706;2023-02-01T08:33:29;2.20;99.90
5210;DHT22;2624;48.048;11.706;2023-02-01T08:38:30;2.30;99.90
5210;DHT22;2624;48.048;11.706;2023-02-01T08:43:34;2.40;99.90
5210;DHT22;2624;48.048;11.706;2023-02-01T08:48:36;2.30;99.90
5210;DHT22;2624;48.048;11.706;2023-02-01T08:53:38;2.30;99.90
5210;DHT22;2624;48.048;11.706;2023-02-01T08:58:42;2.40;99.90
5210;DHT22;2624;48.048;11.706;2023-02-01T09:03:44;2.40;99.90
5210;DHT22;2624;48.048;11.706;2023-02-01T09:08:46;2.50;99.90
5210;DHT22;2624;48.048;11.706;2023-02-01T09:13:49;2.50;99.90
5210;DHT22;2624;48.048;11.706;2023-02-01T09:18:51;2.40;99.90
5210;DHT22;2624;48.048;11.706;2023-02-01T09:23:53;2.50;99.90
5210;DHT22;2624;48.048;11.706;2023-02-01T09:28:56;2.40;99.90
5210;DHT22;2624;48.048;11.706;2023-02-01T09:33:58;2.40;99.90
5210;DHT22;2624;48.048;11.706;2023-02-01T09:39:00;2.60;99.90
5210;DHT22;2624;48.048;11.706;2023-02-01T09:44:08;2.70;99.90
5210;DHT22;2624;48.048;11.706;2023-02-01T09:49:18;2.60;99.90
5210;DHT22;2624;48.048;11.706;2023-02-01T09:54:22;2.90;99.90
5210;DHT22;2624;48.048;11.706;2023-02-01T09:59:34;2.90;99.90
5210;DHT22;2624;48.048;11.706;2023-02-01T10:04:39;2.80;99.90
5210;DHT22;2624;48.048;11.706;2023-02-01T10:10:01;2.80;99.90
5210;DHT22;2624;48.048;11.706;2023-02-01T10:15:19;2.90;99.90
5210;DHT22;2624;48.048;11.706;2023-02-01T10:20:28;2.80;99.90
5210;DHT22;2624;48.048;11.706;2023-02-01T10:25:36;2.80;99.90
5210;DHT22;2624;48.048;11.706;2023-02-01T10:30:43;2.80;99.90
5210;DHT22;2624;48.048;11.706;2023-02-01T10:35:46;3.00;99.90
5210;DHT22;2624;48.048;11.706;2023-02-01T10:40:48;2.90;99.90
5210;DHT22;2624;48.048;11.706;2023-02-01T10:45:52;2.90;99.90
5210;DHT22;2624;48.048;11.706;2023-02-01T10:50:56;2.90;99.90
5210;DHT22;2624;48.048;11.706;2023-02-01T10:56:06;2.90;99.90
5210;DHT22;2624;48.048;11.706;2023-02-01T11:01:15;2.90;99.90
5210;DHT22;2624;48.048;11.706;2023-02-01T11:06:26;3.00;99.90
5210;DHT22;2624;48.048;11.706;2023-02-01T11:11:28;2.90;99.90
5210;DHT22;2624;48.048;11.706;2023-02-01T11:16:34;3.00;99.90
5210;DHT22;2624;48.048;11.706;2023-02-01T11:21:36;2.90;99.90
5210;DHT22;2624;48.048;11.706;2023-02-01T11:26:40;3.00;99.90
5210;DHT22;2624;48.048;11.706;2023-02-01T11:31:44;2.90;99.90
5210;DHT22;2624;48.048;11.706;2023-02-01T11:36:47;2.80;99.90
5210;DHT22;2624;48.048;11.706;2023-02-01T11:41:58;2.90;99.90
5210;DHT22;2624;48.048;11.706;2023-02-01T11:47:25;2.80;99.90
5210;DHT22;2624;48.048;11.706;2023-02-01T11:52:39;3.00;99.90
5210;DHT22;2624;48.048;11.706;2023-02-01T11:57:58;2.90;99.90
5210;DHT22;2624;48.048;11.706;2023-02-01T12:08:56;2.90;99.90
5210;DHT22;2624;48.048;11.706;2023-02-01T12:14:08;2.80;99.90
5210;DHT22;2624;48.048;11.706;2023-02-01T12:25:05;2.90;99.90
5210;DHT22;2624;48.048;11.706;2023-02-01T12:36:09;2.90;99.90
5210;DHT22;2624;48.048;11.706;2023-02-01T12:41:28;2.90;99.90
5210;DHT22;2624;48.048;11.706;2023-02-01T12:46:37;2.80;99.90
5210;DHT22;2624;48.048;11.706;2023-02-01T12:51:43;2.90;99.90
5210;DHT22;2624;48.048;11.706;2023-02-01T12:56:49;3.00;99.90
5210;DHT22;2624;48.048;11.706;2023-02-01T13:01:55;2.90;99.90
5210;DHT22;2624;48.048;11.706;2023-02-01T13:07:04;2.90;99.90
5210;DHT22;2624;48.048;11.706;2023-02-01T13:12:17;3.00;99.90
5210;DHT22;2624;48.048;11.706;2023-02-01T13:17:22;2.90;99.90
5210;DHT22;2624;48.048;11.706;2023-02-01T13:22:28;2.90;99.90
5210;DHT22;2624;48.048;11.706;2023-02-01T13:27:33;2.90;99.90
5210;DHT22;2624;48.048;11.706;2023-02-01T13:32:52;3.00;99.90
5210;DHT22;2624;48.048;11.706;2023-02-01T13:38:28;3.00;99.90
5210;DHT22;2624;48.048;11.706;2023-02-01T13:43:35;3.00;99.90
5210;DHT22;2624;48.048;11.706;2023-02-01T13:48:41;3.10;99.90
5210;DHT22;2624;48.048;11.706;2023-02-01T13:53:48;3.00;99.90
5210;DHT22;2624;48.048;11.706;2023-02-01T13:58:51;3.00;99.90
5210;DHT22;2624;48.048;11.706;2023-02-01T14:03:54;3.00;99.90
5210;DHT22;2624;48.048;11.706;2023-02-01T14:09:16;3.10;99.90
5210;DHT22;2624;48.048;11.706;2023-02-01T14:14:47;3.00;99.90
5210;DHT22;2624;48.048;11.706;2023-02-01T14:25:48;3.00;99.90
5210;DHT22;2624;48.048;11.706;2023-02-01T14:31:00;2.90;99.90
5210;DHT22;2624;48.048;11.706;2023-02-01T14:36:14;3.00;99.90
5210;DHT22;2624;48.048;11.706;2023-02-01T14:41:28;3.00;99.90
5210;DHT22;2624;48.048;11.706;2023-02-01T14:52:13;3.00;99.90
5210;DHT22;2624;48.048;11.706;2023-02-01T14:57:17;2.90;99.90
5210;DHT22;2624;48.048;11.706;2023-02-01T15:02:25;3.00;99.90
5210;DHT22;2624;48.048;11.706;2023-02-01T15:07:29;3.00;99.90
5210;DHT22;2624;48.048;11.706;2023-02-01T15:12:31;3.00;99.90
5210;DHT22;2624;48.048;11.706;2023-02-01T15:17:33;3.00;99.90
5210;DHT22;2624;48.048;11.706;2023-02-01T15:22:37;3.00;99.90
5210;DHT22;2624;48.048;11.706;2023-02-01T15:27:38;3.00;99.90
5210;DHT22;2624;48.048;11.706;2023-02-01T15:32:40;2.90;99.90
5210;DHT22;2624;48.048;11.706;2023-02-01T15:37:43;2.90;99.90
5210;DHT22;2624;48.048;11.706;2023-02-01T15:42:51;2.90;99.90
5210;DHT22;2624;48.048;11.706;2023-02-01T15:47:56;2.90;99.90
5210;DHT22;2624;48.048;11.706;2023-02-01T15:52:59;2.90;99.90
5210;DHT22;2624;48.048;11.706;2023-02-01T15:58:05;2.90;99.90
5210;DHT22;2624;48.048;11.706;2023-02-01T16:03:24;2.80;99.90
5210;DHT22;2624;48.048;11.706;2023-02-01T16:08:30;2.80;99.90
5210;DHT22;2624;48.048;11.706;2023-02-01T16:13:35;2.80;99.90
5210;DHT22;2624;48.048;11.706;2023-02-01T16:18:37;2.80;99.90
5210;DHT22;2624;48.048;11.706;2023-02-01T16:23:40;2.80;99.90
5210;DHT22;2624;48.048;11.706;2023-02-01T16:28:41;2.80;99.90
5210;DHT22;2624;48.048;11.706;2023-02-01T16:33:43;2.80;99.90
5210;DHT22;2624;48.048;11.706;2023-02-01T16:38:47;2.80;99.90
5210;DHT22;2624;48.048;11.706;2023-02-01T16:43:51;2.80;99.90
5210;DHT22;2624;48.048;11.706;2023-02-01T16:48:54;2.80;99.90
5210;DHT22;2624;48.048;11.706;2023-02-01T16:53:58;2.80;99.90
5210;DHT22;2624;48.048;11.706;2023-02-01T16:59:00;2.80;99.90
5210;DHT22;2624;48.048;11.706;2023-02-01T17:04:01;2.80;99.90
5210;DHT22;2624;48.048;11.706;2023-02-01T17:09:05;2.80;99.90
5210;DHT22;2624;48.048;11.706;2023-02-01T17:14:15;2.80;99.90
5210;DHT22;2624;48.048;11.706;2023-02-01T17:19:20;2.80;99.90
5210;DHT22;2624;48.048;11.706;2023-02-01T17:24:26;2.80;99.90
5210;DHT22;2624;48.048;11.706;2023-02-01T17:29:28;2.80;99.90
5210;DHT22;2624;48.048;11.706;2023-02-01T17:34:30;2.90;99.90
5210;DHT22;2624;48.048;11.706;2023-02-01T17:39:33;2.90;99.90
5210;DHT22;2624;48.048;11.706;2023-02-01T17:44:55;2.90;99.90
5210;DHT22;2624;48.048;11.706;2023-02-01T17:49:57;2.80;99.90
5210;DHT22;2624;48.048;11.706;2023-02-01T17:55:00;2.90;99.90
5210;DHT22;2624;48.048;11.706;2023-02-01T18:00:05;2.80;99.90
5210;DHT22;2624;48.048;11.706;2023-02-01T18:05:14;2.90;99.90
5210;DHT22;2624;48.048;11.706;2023-02-01T18:10:18;3.00;99.90
5210;DHT22;2624;48.048;11.706;2023-02-01T18:15:22;2.90;99.90
5210;DHT22;2624;48.048;11.706;2023-02-01T18:20:25;2.80;99.90
5210;DHT22;2624;48.048;11.706;2023-02-01T18:25:30;2.90;99.90
5210;DHT22;2624;48.048;11.706;2023-02-01T18:30:36;2.90;99.90
5210;DHT22;2624;48.048;11.706;2023-02-01T18:35:38;2.90;99.90
5210;DHT22;2624;48.048;11.706;2023-02-01T18:40:47;2.90;99.90
5210;DHT22;2624;48.048;11.706;2023-02-01T18:45:49;2.80;99.90
5210;DHT22;2624;48.048;11.706;2023-02-01T18:50:51;2.80;99.90
5210;DHT22;2624;48.048;11.706;2023-02-01T18:55:58;2.80;99.90
5210;DHT22;2624;48.048;11.706;2023-02-01T19:01:06;2.80;99.90
5210;DHT22;2624;48.048;11.706;2023-02-01T19:06:08;2.90;99.90
5210;DHT22;2624;48.048;11.706;2023-02-01T19:11:11;2.90;99.90
5210;DHT22;2624;48.048;11.706;2023-02-01T19:16:13;2.80;99.90
5210;DHT22;2624;48.048;11.706;2023-02-01T19:21:15;2.90;99.90
5210;DHT22;2624;48.048;11.706;2023-02-01T19:26:18;3.00;99.90
5210;DHT22;2624;48.048;11.706;2023-02-01T19:31:20;2.90;99.90
5210;DHT22;2624;48.048;11.706;2023-02-01T19:36:22;3.00;99.90
5210;DHT22;2624;48.048;11.706;2023-02-01T19:41:27;2.90;99.90
5210;DHT22;2624;48.048;11.706;2023-02-01T19:46:29;3.00;99.90
5210;DHT22;2624;48.048;11.706;2023-02-01T19:51:31;3.00;99.90
5210;DHT22;2624;48.048;11.706;2023-02-01T19:56:34;3.00;99.90
5210;DHT22;2624;48.048;11.706;2023-02-01T20:01:35;2.90;99.90
5210;DHT22;2624;48.048;11.706;2023-02-01T20:06:40;3.00;99.90
5210;DHT22;2624;48.048;11.706;2023-02-01T20:11:49;2.90;99.90
5210;DHT22;2624;48.048;11.706;2023-02-01T20:16:51;2.90;99.90
5210;DHT22;2624;48.048;11.706;2023-02-01T20:21:53;3.00;99.90
5210;DHT22;2624;48.048;11.706;2023-02-01T20:26:56;3.00;99.90
5210;DHT22;2624;48.048;11.706;2023-02-01T20:31:58;3.00;99.90
5210;DHT22;2624;48.048;11.706;2023-02-01T20:37:00;3.00;99.90
5210;DHT22;2624;48.048;11.706;2023-02-01T20:42:03;3.00;99.90
5210;DHT22;2624;48.048;11.706;2023-02-01T20:47:05;3.00;99.90
5210;DHT22;2624;48.048;11.706;2023-02-01T20:52:07;3.00;99.90
5210;DHT22;2624;48.048;11.706;2023-02-01T20:57:10;3.00;99.90
5210;DHT22;2624;48.048;11.706;2023-02-01T21:02:11;2.90;99.90
5210;DHT22;2624;48.048;11.706;2023-02-01T21:07:14;2.90;99.90
5210;DHT22;2624;48.048;11.706;2023-02-01T21:12:17;3.00;99.90
5210;DHT22;2624;48.048;11.706;2023-02-01T21:17:19;3.00;99.90
5210;DHT22;2624;48.048;11.706;2023-02-01T21:22:21;2.90;99.90
5210;DHT22;2624;48.048;11.706;2023-02-01T21:27:24;2.90;99.90
5210;DHT22;2624;48.048;11.706;2023-02-01T21:32:26;2.90;99.90
5210;DHT22;2624;48.048;11.706;2023-02-01T21:37:28;2.90;99.90
5210;DHT22;2624;48.048;11.706;2023-02-01T21:42:31;2.90;99.90
5210;DHT22;2624;48.048;11.706;2023-02-01T21:47:33;2.90;99.90
5210;DHT22;2624;48.048;11.706;2023-02-01T21:52:34;2.90;99.90
5210;DHT22;2624;48.048;11.706;2023-02-01T21:57:40;2.90;99.90
5210;DHT22;2624;48.048;11.706;2023-02-01T22:02:41;2.90;99.90
5210;DHT22;2624;48.048;11.706;2023-02-01T22:07:43;3.00;99.90
5210;DHT22;2624;48.048;11.706;2023-02-01T22:12:46;2.90;99.90
5210;DHT22;2624;48.048;11.706;2023-02-01T22:17:48;2.90;99.90
5210;DHT22;2624;48.048;11.706;2023-02-01T22:22:50;2.90;99.90
5210;DHT22;2624;48.048;11.706;2023-02-01T22:27:53;2.80;99.90
5210;DHT22;2624;48.048;11.706;2023-02-01T22:32:55;2.90;99.90
5210;DHT22;2624;48.048;11.706;2023-02-01T22:37:57;2.90;99.90
5210;DHT22;2624;48.048;11.706;2023-02-01T22:43:00;2.90;99.90
5210;DHT22;2624;48.048;11.706;2023-02-01T22:48:02;2.80;99.90
5210;DHT22;2624;48.048;11.706;2023-02-01T22:53:04;2.90;99.90
5210;DHT22;2624;48.048;11.706;2023-02-01T22:58:08;2.90;99.90
5210;DHT22;2624;48.048;11.706;2023-02-01T23:03:09;2.90;99.90
5210;DHT22;2624;48.048;11.706;2023-02-01T23:08:11;2.80;99.90
5210;DHT22;2624;48.048;11.706;2023-02-01T23:13:14;2.80;99.90
5210;DHT22;2624;48.048;11.706;2023-02-01T23:18:16;2.80;99.90
5210;DHT22;2624;48.048;11.706;2023-02-01T23:23:18;2.80;99.90
5210;DHT22;2624;48.048;11.706;2023-02-01T23:28:21;2.80;99.90
5210;DHT22;2624;48.048;11.706;2023-02-01T23:33:24;2.80;99.90
5210;DHT22;2624;48.048;11.706;2023-02-01T23:38:26;2.80;99.90
5210;DHT22;2624;48.048;11.706;2023-02-01T23:43:30;2.80;99.90
5210;DHT22;2624;48.048;11.706;2023-02-01T23:48:49;2.80;99.90
5210;DHT22;2624;48.048;11.706;2023-02-01T23:53:52;2.80;99.90
5210;DHT22;2624;48.048;11.706;2023-02-01T23:58:55;2.80;99.90
